• Join FlightAware (Why Join?)
  • Login
  • US Flag 
12:53PM EDT


 

Airport Tracker/Info


-or-


 

Live Flight TrackerFlight Track Log ✈ EJA312 ✈ 22-Oct-2013 ✈ KBED - KBDL

Flight Track Log - Related Links

Times and Time Zones

All times are in EDT time to prevent confusion due to time zone crossing. See the EJA312 flight status page for this flight to view local times or setup timezone preferences in your user account.

Time Position Orientation Groundspeed Altitude Reporting Facility
EDT Latitude Longitude Course Direction KTS MPH feet Rate Location/Type
06:41PM 42.4587 -71.2593 151° Southeast 205 236 2,000  Level FlightAware ADS-B
06:41PM 42.4465 -71.2564 170° South 207 238 2,200 780 Climbing FlightAware ADS-B (KBOS)
06:41PM 42.4371 -71.2623 205° Southwest 196 226 2,300 900 Climbing FlightAware ADS-B (KBOS)
06:41PM 42.4329 -71.2682 227° Southwest 190 219 2,500 1,260 Climbing FlightAware ADS-B (KBOS)
06:41PM 42.4214 -71.2875 231° Southwest 182 209 2,900 2,400 Climbing FlightAware ADS-B (KBOS)
06:42PM 42.4015 -71.3188 229° Southwest 186 214 4,800 3,120 Climbing FlightAware ADS-B (KBOS)
06:42PM 42.3902 -71.3362 229° Southwest 206 237 5,700 3,540 Climbing FlightAware ADS-B
06:43PM 42.3799 -71.3521 229° Southwest 229 264 6,700 3,120 Climbing FlightAware ADS-B
06:43PM 42.3615 -71.3808 229° Southwest 252 290 7,800 2,040 Climbing FlightAware ADS-B
06:43PM 42.3471 -71.4031 229° Southwest 245 282 8,200 600 Climbing FlightAware ADS-B (KBOS)
06:44PM 42.3449 -71.4064 229° Southwest 250 288 8,200  Level FlightAware ADS-B (KBOS)
06:44PM 42.3154 -71.4523 229° Southwest 254 292 8,200  Level FlightAware ADS-B
06:44PM 42.3072 -71.4650 229° Southwest 249 287 8,200  Level FlightAware ADS-B
06:44PM 42.3003 -71.4757 229° Southwest 249 287 8,200  Level FlightAware ADS-B
06:45PM 42.2843 -71.5004 229° Southwest 255 293 8,200  Level FlightAware ADS-B
06:45PM 42.2770 -71.5118 229° Southwest 251 289 8,200  Level FlightAware ADS-B
06:45PM 42.2608 -71.5367 229° Southwest 254 292 8,200  Level FlightAware ADS-B
06:45PM 42.2489 -71.5551 229° Southwest 253 291 8,200  Level FlightAware ADS-B
06:46PM 42.2379 -71.5721 229° Southwest 258 297 8,200  Level FlightAware ADS-B
06:46PM 42.2299 -71.5844 229° Southwest 253 291 8,200  Level FlightAware ADS-B
06:46PM 42.2159 -71.6061 229° Southwest 257 296 8,200  Level FlightAware ADS-B
06:46PM 42.2002 -71.6354 234° Southwest 253 291 8,200  Level FlightAware ADS-B
06:47PM 42.1949 -71.6619 255° West 253 291 8,200  Level FlightAware ADS-B
06:47PM 42.1887 -71.6956 256° West 253 291 8,200  Level FlightAware ADS-B
06:47PM 42.1869 -71.7054 256° West 251 289 8,200  Level FlightAware ADS-B
06:48PM 42.1805 -71.7407 256° West 251 289 8,200 -540 Level FlightAware ADS-B
06:48PM 42.1740 -71.7764 256° West 250 288 7,700 -1,260 Descending FlightAware ADS-B
06:49PM 42.1701 -71.7986 256° West 249 287 7,100 -1,860 Descending FlightAware ADS-B
06:49PM 42.1574 -71.8707 257° West 246 283 6,100 -1,920 Descending FlightAware ADS-B (EDDS / STR)
06:49PM 42.1521 -71.8998 256° West 251 289 5,500 -540 Descending FlightAware ADS-B (EDDS / STR)
06:51PM 42.1296 -72.0221 256° West 240 276 5,200 -180 Descending FlightAware ADS-B (EDDS / STR)
06:51PM 42.1186 -72.0787 255° West 249 287 5,200  Level FlightAware ADS-B (EDDS / STR)
06:52PM 42.1131 -72.1077 255° West 260 299 5,200  Level FlightAware ADS-B (EDDS / STR)
06:52PM 42.1078 -72.1348 255° West 258 297 5,200  Level FlightAware ADS-B (EDDS / STR)
06:52PM 42.1007 -72.1714 255° West 242 278 5,200  Level FlightAware ADS-B (EDDS / STR)
06:53PM 42.0957 -72.1972 255° West 240 276 5,200  Level FlightAware ADS-B (EDDS / STR)
06:53PM 42.0894 -72.2296 255° West 239 275 5,200 -180 Level FlightAware ADS-B (EDDS / STR)
06:53PM 42.0845 -72.2553 255° West 238 274 5,100 -960 Descending FlightAware ADS-B (EDDS / STR)
06:54PM 42.0786 -72.2853 255° West 231 266 4,600 -1,740 Descending FlightAware ADS-B (EDDS / STR)
06:54PM 42.0728 -72.3136 255° West 231 266 4,000 -1,500 Descending FlightAware ADS-B (EDDS / STR)
06:54PM 42.0674 -72.3408 255° West 240 276 3,600 -1,080 Descending FlightAware ADS-B (EDDS / STR)
06:55PM 42.0627 -72.3649 255° West 245 282 3,300 -600 Descending FlightAware ADS-B (EDDS / STR)
06:55PM 42.0558 -72.4009 256° West 237 273 3,200 -180 Descending FlightAware ADS-B (EDDS / STR)
06:55PM 42.0515 -72.4241 256° West 239 275 3,200 -180 Level FlightAware ADS-B (EDDS / STR)
06:56PM 42.0426 -72.4705 256° West 213 245 3,100 -120 Descending FlightAware ADS-B (EDDS / STR)
06:56PM 42.0410 -72.4951 265° West 190 219 3,100  Level FlightAware ADS-B (EDDS / STR)
06:56PM 42.0438 -72.5017 300° West 185 213 3,100 -540 Level FlightAware ADS-B (EDDS / STR)
06:57PM 42.0482 -72.5193 289° West 178 205 2,900 -540 Descending FlightAware ADS-B (EDDS / STR)
06:57PM 42.0422 -72.5497 255° West 169 194 2,700 -480 Descending FlightAware ADS-B (EDDS / STR)
06:58PM 42.0247 -72.5747 255° West 162 186 2,400 -780 Descending Boston Center
06:58PM 42.0158 -72.5864 224° Southwest 164 189 2,000 -720 Descending Boston Center
06:59PM 41.9961 -72.6106 222° Southwest 137 158 1,700 -600 Descending Boston Center
06:59PM 41.9881 -72.6228 228° Southwest 145 167 1,400 -840 Descending Boston Center
07:00PM 41.9700 -72.6447 222° Southwest 123 142 900 -780 Descending Boston Center
07:00PM 41.9622 -72.6572 230° Southwest 124 143 600 -600 Descending Boston Center
07:01PM 41.9397 -72.6864 224° Southwest 119 137 100 -540 Descending Boston Center
07:03PM 41.9333 -72.6833 257° West  Level FlightAware Approximate
07:10PM 41.9392 -72.6834 257° West  Level Estimated